Time;durP1;ratioP1;P1;durP2;ratioP2;P2;SDS_P1;SDS_P2;PMS_P1;PMS_P2;Temp;Humidity;BMP_temperature;BMP_pressure;BME280_temperature;BME280_humidity;BME280_pressure;Samples;Min_cycle;Max_cycle;Signal;HPM_P1;HPM_P2
2021/04/14 00:01:35;;;;;;;4.35;3.90;;;;;;;4.71;62.05;102053.63;5073734;28;20055;-66
2021/04/14 00:04:00;;;;;;;7.20;4.30;;;;;;;5.00;60.60;102060.75;5073654;28;20480;-66
2021/04/14 00:06:25;;;;;;;5.30;4.60;;;;;;;4.89;60.13;102047.31;5073539;28;20028;-66
2021/04/14 00:08:51;;;;;;;7.40;4.40;;;;;;;4.45;62.66;102056.16;5072639;28;20103;-65
2021/04/14 00:11:18;;;;;;;4.00;3.70;;;;;;;4.18;63.17;102054.25;5072955;28;20048;-66
2021/04/14 00:13:45;;;;;;;5.32;4.82;;;;;;;4.40;62.30;102051.59;5070826;28;20024;-66
2021/04/14 00:16:22;;;;;;;4.72;3.95;;;;;;;4.16;64.51;102062.81;5072248;28;20036;-67
2021/04/14 00:18:48;;;;;;;5.22;4.72;;;;;;;4.54;61.32;102049.50;5056493;28;20107;-67
2021/04/14 00:21:15;;;;;;;6.05;4.30;;;;;;;4.48;63.73;102056.28;5072254;28;20060;-66
2021/04/14 00:23:40;;;;;;;6.18;3.95;;;;;;;4.30;62.97;102050.34;5071524;28;20435;-66
2021/04/14 00:26:06;;;;;;;4.93;4.40;;;;;;;4.28;62.23;102049.38;5071750;28;20059;-66
2021/04/14 00:28:32;;;;;;;4.60;4.18;;;;;;;3.94;64.42;102052.41;5070777;28;20047;-66
2021/04/14 00:30:58;;;;;;;4.78;4.20;;;;;;;4.30;63.80;102051.22;5071319;28;20024;-67
2021/04/14 00:33:23;;;;;;;6.25;4.35;;;;;;;4.74;62.47;102053.75;5072430;28;20024;-67
2021/04/14 00:35:49;;;;;;;4.88;4.32;;;;;;;4.27;62.21;102047.59;5074732;28;20024;-67
2021/04/14 00:38:16;;;;;;;4.80;4.30;;;;;;;4.10;64.75;102053.03;5072770;28;20074;-66
2021/04/14 00:40:45;;;;;;;9.45;4.60;;;;;;;4.24;63.73;102046.63;5072920;28;20016;-67
2021/04/14 00:43:20;;;;;;;7.88;4.82;;;;;;;4.45;61.56;102050.03;5072471;28;20059;-67
2021/04/14 00:45:46;;;;;;;5.38;3.63;;;;;;;4.75;60.48;102049.41;5072473;28;20031;-67
2021/04/14 00:48:11;;;;;;;5.53;4.30;;;;;;;4.43;61.57;102051.72;5072158;28;20033;-67
2021/04/14 00:50:38;;;;;;;4.43;4.00;;;;;;;4.20;62.42;102052.56;5036849;28;20056;-67
2021/04/14 00:53:04;;;;;;;5.38;4.80;;;;;;;3.91;64.68;102056.63;5037255;28;20032;-67
2021/04/14 00:55:31;;;;;;;5.30;4.80;;;;;;;4.08;63.38;102052.09;5072382;28;20033;-67
2021/04/14 00:57:56;;;;;;;7.20;4.68;;;;;;;4.63;62.60;102049.81;5073685;28;20017;-66
2021/04/14 01:00:32;;;;;;;5.35;4.60;;;;;;;4.08;62.75;102054.69;5071312;28;20503;-65
2021/04/14 01:02:58;;;;;;;5.72;4.68;;;;;;;3.83;63.77;102058.91;5071276;28;20031;-65
2021/04/14 01:05:25;;;;;;;5.93;4.95;;;;;;;3.67;63.49;102052.19;5086907;28;20028;-66
2021/04/14 01:07:52;;;;;;;6.28;4.75;;;;;;;3.85;64.38;102046.81;5070629;28;20032;-66
2021/04/14 01:10:18;;;;;;;9.55;4.95;;;;;;;4.00;63.27;102062.22;5070468;28;20031;-66
2021/04/14 01:12:44;;;;;;;5.65;4.85;;;;;;;3.66;64.72;102056.50;5070818;28;20036;-66
2021/04/14 01:15:12;;;;;;;5.43;4.50;;;;;;;3.80;64.16;102053.59;5054709;28;20028;-65
2021/04/14 01:17:38;;;;;;;5.93;4.22;;;;;;;3.93;64.57;102049.72;5070668;28;20112;-65
2021/04/14 01:20:05;;;;;;;6.75;4.75;;;;;;;4.13;64.75;102053.16;5070525;28;20154;-66
2021/04/14 01:22:31;;;;;;;5.63;4.43;;;;;;;4.01;64.09;102052.66;5050708;28;20048;-66
2021/04/14 01:24:57;;;;;;;7.28;4.45;;;;;;;4.07;63.59;102053.78;5050784;28;20092;-65
2021/04/14 01:27:22;;;;;;;5.50;4.22;;;;;;;3.98;64.94;102059.53;5067488;28;20079;-66
2021/04/14 01:29:47;;;;;;;6.28;4.95;;;;;;;3.86;64.31;102053.81;5052684;28;20048;-66
2021/04/14 01:32:12;;;;;;;6.57;4.82;;;;;;;3.51;65.50;102050.63;5060018;28;20032;-67
2021/04/14 01:34:38;;;;;;;4.97;4.15;;;;;;;3.72;64.71;102056.78;5071650;28;20016;-67
2021/04/14 01:37:03;;;;;;;9.32;4.78;;;;;;;4.38;62.63;102043.69;5073116;28;20020;-67
2021/04/14 01:39:28;;;;;;;5.68;4.13;;;;;;;4.02;62.54;102057.06;5071149;28;20435;-67
2021/04/14 01:41:54;;;;;;;9.77;4.88;;;;;;;3.66;65.16;102051.28;5071973;28;20089;-66
2021/04/14 01:44:19;;;;;;;5.68;4.60;;;;;;;3.97;64.57;102039.47;5071119;28;20399;-66
2021/04/14 01:46:44;;;;;;;6.78;4.45;;;;;;;4.11;64.04;102054.81;5071968;28;20495;-65
2021/04/14 01:49:10;;;;;;;5.18;4.65;;;;;;;3.72;64.30;102048.94;5071340;28;20484;-65
2021/04/14 01:51:36;;;;;;;6.90;4.30;;;;;;;3.98;63.60;102046.47;5069905;28;20433;-65
2021/04/14 01:54:02;;;;;;;4.95;4.38;;;;;;;4.02;63.78;102051.81;5071423;28;20025;-66
2021/04/14 01:56:27;;;;;;;8.77;5.60;;;;;;;4.26;63.13;102051.06;5071808;28;20299;-66
2021/04/14 01:58:52;;;;;;;6.03;4.50;;;;;;;3.76;64.39;102041.25;5072894;28;20070;-66
2021/04/14 02:01:19;;;;;;;6.40;4.55;;;;;;;3.79;66.12;102046.56;5071290;28;20039;-66
2021/04/14 02:03:45;;;;;;;8.25;4.30;;;;;;;3.68;64.93;102048.75;5077079;28;20038;-66
2021/04/14 02:06:14;;;;;;;7.13;4.88;;;;;;;3.50;65.56;102043.66;5078202;28;20063;-66
2021/04/14 02:08:39;;;;;;;5.25;4.75;;;;;;;3.80;63.76;102043.16;5087444;28;20023;-66
2021/04/14 02:11:05;;;;;;;5.65;5.00;;;;;;;3.78;64.35;102042.19;5071903;28;20029;-66
2021/04/14 02:13:33;;;;;;;4.82;4.32;;;;;;;3.38;65.69;102042.31;5084739;28;20055;-67
2021/04/14 02:15:59;;;;;;;6.15;4.55;;;;;;;3.72;64.69;102046.34;5053655;28;20413;-65
2021/04/14 02:18:25;;;;;;;7.45;5.07;;;;;;;3.81;64.02;102042.31;5075205;28;20469;-66
2021/04/14 02:20:51;;;;;;;5.72;4.68;;;;;;;3.89;63.73;102048.72;5074750;28;20571;-66
2021/04/14 02:23:23;;;;;;;7.20;5.32;;;;;;;3.51;66.69;102050.63;5075242;28;20494;-65
2021/04/14 02:25:49;;;;;;;8.05;4.45;;;;;;;3.80;62.45;102043.16;5073861;28;20364;-65
2021/04/14 02:28:15;;;;;;;4.82;3.90;;;;;;;3.14;65.25;102045.59;5074071;28;20059;-67
2021/04/14 02:30:41;;;;;;;8.02;4.20;;;;;;;3.06;65.14;102040.06;5074934;28;20031;-67
2021/04/14 02:33:08;;;;;;;6.90;4.30;;;;;;;3.02;65.21;102050.28;5076535;28;20028;-67
2021/04/14 02:35:34;;;;;;;6.25;4.85;;;;;;;2.73;67.00;102052.50;5073299;28;20487;-65
2021/04/14 02:37:59;;;;;;;6.57;4.30;;;;;;;2.91;66.63;102050.72;5058345;28;20070;-66
2021/04/14 02:40:24;;;;;;;10.38;5.18;;;;;;;2.79;67.32;102050.16;5076089;28;20028;-66
2021/04/14 02:42:50;;;;;;;5.47;4.38;;;;;;;3.66;63.94;102050.38;5057427;28;20182;-66
2021/04/14 02:45:18;;;;;;;6.30;4.43;;;;;;;3.51;64.80;102055.84;5073290;28;20107;-66
2021/04/14 02:47:43;;;;;;;8.00;4.63;;;;;;;4.71;60.20;102032.69;5071840;28;20032;-66
2021/04/14 02:50:10;;;;;;;6.43;5.20;;;;;;;4.53;59.91;102043.38;5075426;28;20399;-66
2021/04/14 02:52:35;;;;;;;7.43;4.78;;;;;;;4.65;59.65;102042.94;5075091;28;20534;-66
2021/04/14 02:55:00;;;;;;;4.95;4.22;;;;;;;4.14;59.96;102039.28;5074954;28;20032;-67
2021/04/14 02:57:26;;;;;;;5.40;4.85;;;;;;;4.68;59.61;102036.94;5075672;28;20021;-67
2021/04/14 02:59:53;;;;;;;7.65;4.82;;;;;;;4.46;60.36;102047.47;5073921;28;20024;-66
2021/04/14 03:02:19;;;;;;;7.85;4.82;;;;;;;5.08;57.38;102034.91;5074982;28;20027;-66
2021/04/14 03:04:44;;;;;;;6.30;4.65;;;;;;;4.59;58.55;102032.25;5074370;28;20025;-66
2021/04/14 03:07:09;;;;;;;5.70;4.53;;;;;;;4.29;57.87;102043.31;5075057;28;20058;-65
2021/04/14 03:09:35;;;;;;;9.77;5.30;;;;;;;4.15;59.65;102040.16;5071548;28;20032;-65
2021/04/14 03:12:00;;;;;;;6.50;4.53;;;;;;;4.35;59.61;102044.47;5072433;28;20082;-66
2021/04/14 03:14:26;;;;;;;5.22;4.32;;;;;;;3.54;59.86;102035.13;5074092;28;20029;-65
2021/04/14 03:16:51;;;;;;;9.85;5.72;;;;;;;2.80;65.08;102045.00;5073572;28;20024;-65
2021/04/14 03:19:16;;;;;;;6.60;4.50;;;;;;;3.46;60.67;102037.41;5073276;28;20471;-65
2021/04/14 03:21:41;;;;;;;7.90;5.45;;;;;;;3.37;64.70;102032.66;5072732;28;20016;-66
2021/04/14 03:24:07;;;;;;;8.68;5.40;;;;;;;3.05;65.60;102029.56;5072772;28;20025;-66
2021/04/14 03:26:32;;;;;;;5.93;5.40;;;;;;;2.83;63.37;102044.25;5072765;28;20035;-66
2021/04/14 03:28:58;;;;;;;7.22;5.15;;;;;;;2.18;65.35;102034.38;5073268;28;20039;-66
2021/04/14 03:31:26;;;;;;;7.20;5.50;;;;;;;2.21;67.91;102041.44;5072922;28;20048;-67
2021/04/14 03:33:52;;;;;;;6.28;5.70;;;;;;;2.58;66.58;102037.03;5073033;28;20399;-66
2021/04/14 03:36:18;;;;;;;9.82;6.63;;;;;;;3.02;66.46;102034.66;5072522;28;20020;-66
2021/04/14 03:38:43;;;;;;;11.70;6.63;;;;;;;2.87;65.75;102040.97;5072401;28;20036;-66
2021/04/14 03:41:08;;;;;;;10.75;5.85;;;;;;;2.97;66.43;102030.97;5073342;28;20068;-66
2021/04/14 03:43:33;;;;;;;9.00;6.22;;;;;;;3.24;66.27;102025.16;5074466;28;20017;-66
2021/04/14 03:46:00;;;;;;;8.77;6.57;;;;;;;3.51;64.14;102035.00;5072703;28;20036;-66
2021/04/14 03:48:26;;;;;;;7.18;5.63;;;;;;;3.24;64.11;102041.72;5073345;28;20391;-67
2021/04/14 03:50:52;;;;;;;10.82;6.07;;;;;;;3.16;65.00;102033.53;5089817;28;20028;-66
2021/04/14 03:53:27;;;;;;;8.82;6.07;;;;;;;2.87;66.56;102035.75;5073467;28;20024;-66
2021/04/14 03:56:01;;;;;;;10.60;7.40;;;;;;;3.31;65.83;102038.53;5090961;28;20391;-66
2021/04/14 03:58:27;;;;;;;9.80;6.43;;;;;;;3.19;64.52;102048.44;5074598;28;20082;-67
2021/04/14 04:00:55;;;;;;;7.57;5.90;;;;;;;2.47;67.12;102057.38;5072271;28;20245;-65
2021/04/14 04:03:21;;;;;;;12.63;6.25;;;;;;;2.68;67.75;102054.88;5070531;28;20074;-66
2021/04/14 04:05:47;;;;;;;8.45;6.53;;;;;;;3.42;64.17;102049.44;5072966;28;20031;-65
2021/04/14 04:08:12;;;;;;;7.05;5.03;;;;;;;3.37;62.77;102048.31;5078234;28;20388;-66
2021/04/14 04:10:38;;;;;;;8.82;5.60;;;;;;;3.77;60.63;102051.72;5070589;28;20483;-67
2021/04/14 04:13:03;;;;;;;9.40;5.85;;;;;;;4.05;60.95;102049.34;5072562;28;20034;-67
2021/04/14 04:15:29;;;;;;;11.10;6.22;;;;;;;3.79;61.71;102041.34;5083828;28;20382;-67
2021/04/14 04:17:54;;;;;;;10.82;6.47;;;;;;;3.44;63.40;102045.16;5089812;28;20031;-67
2021/04/14 04:20:19;;;;;;;9.25;5.65;;;;;;;3.45;63.53;102052.19;5073879;28;20035;-67
2021/04/14 04:22:45;;;;;;;10.05;6.00;;;;;;;3.57;61.13;102045.69;5072246;28;20471;-66
2021/04/14 04:25:11;;;;;;;7.55;4.88;;;;;;;4.13;59.69;102047.06;5071727;28;20025;-66
2021/04/14 04:27:36;;;;;;;9.05;6.32;;;;;;;4.37;57.72;102052.38;5072832;28;20391;-66
2021/04/14 04:30:04;;;;;;;8.70;6.03;;;;;;;4.54;57.51;102044.28;5069580;28;20021;-66
2021/04/14 04:32:29;;;;;;;8.93;6.85;;;;;;;4.64;57.11;102054.25;5087372;28;20036;-65
2021/04/14 04:34:55;;;;;;;9.63;5.85;;;;;;;4.57;57.37;102054.84;5072542;28;20028;-66
2021/04/14 04:37:20;;;;;;;9.00;5.95;;;;;;;3.95;60.19;102056.81;5072228;28;20373;-66
2021/04/14 04:39:45;;;;;;;9.50;6.30;;;;;;;3.87;60.51;102052.97;5071171;28;20510;-66
2021/04/14 04:42:11;;;;;;;12.85;8.73;;;;;;;4.19;60.20;102058.63;5071632;28;20028;-66
2021/04/14 04:44:36;;;;;;;19.92;12.10;;;;;;;3.62;61.92;102061.53;5072629;28;20077;-66
2021/04/14 04:47:02;;;;;;;8.00;6.35;;;;;;;3.57;62.01;102074.41;5071379;28;20023;-66
2021/04/14 04:49:27;;;;;;;9.43;6.22;;;;;;;3.95;58.45;102061.13;5071159;28;20024;-66
2021/04/14 04:51:52;;;;;;;9.23;6.18;;;;;;;4.60;57.78;102054.94;5072134;28;20101;-66
2021/04/14 04:54:18;;;;;;;7.43;6.10;;;;;;;4.87;56.17;102065.53;5071586;28;20039;-66
2021/04/14 04:56:43;;;;;;;9.55;6.50;;;;;;;4.73;57.62;102058.91;5070354;28;20377;-66
2021/04/14 04:59:09;;;;;;;10.77;7.93;;;;;;;4.41;59.24;102069.94;5071322;28;20074;-66
2021/04/14 05:01:35;;;;;;;8.65;7.70;;;;;;;4.18;61.10;102059.47;5071825;28;20055;-67
2021/04/14 05:04:00;;;;;;;12.90;7.07;;;;;;;4.85;58.05;102066.31;5072247;28;20032;-67
2021/04/14 05:06:26;;;;;;;8.18;6.05;;;;;;;5.32;55.17;102057.50;5055533;28;20514;-67
2021/04/14 05:08:51;;;;;;;12.20;7.10;;;;;;;4.94;58.39;102065.78;5072151;28;20028;-67
2021/04/14 05:11:16;;;;;;;8.23;6.68;;;;;;;4.93;59.13;102071.84;5073234;28;20043;-67
2021/04/14 05:13:42;;;;;;;17.08;8.10;;;;;;;4.87;60.56;102067.28;5073519;28;20036;-67
2021/04/14 05:16:07;;;;;;;13.98;8.80;;;;;;;4.31;61.68;102073.91;5073537;28;20060;-67
2021/04/14 05:18:34;;;;;;;16.45;7.28;;;;;;;4.18;64.71;102077.75;5072544;28;20387;-66
2021/04/14 05:21:00;;;;;;;12.82;7.95;;;;;;;4.24;65.01;102071.88;5071796;28;20506;-67
2021/04/14 05:23:26;;;;;;;15.48;7.05;;;;;;;4.81;62.72;102072.28;5072255;28;20024;-66
2021/04/14 05:25:52;;;;;;;10.63;6.63;;;;;;;4.55;62.51;102077.41;5073388;28;20028;-66
2021/04/14 05:28:19;;;;;;;11.02;7.20;;;;;;;4.79;62.41;102069.59;5070504;28;20476;-66
2021/04/14 05:30:44;;;;;;;9.38;5.97;;;;;;;4.80;62.62;102073.13;5075619;28;20017;-66
2021/04/14 05:33:11;;;;;;;11.07;6.35;;;;;;;5.05;61.04;102074.00;5055141;28;20032;-67
2021/04/14 05:35:37;;;;;;;9.27;6.43;;;;;;;5.58;61.14;102078.47;5072533;28;20029;-66
2021/04/14 05:38:02;;;;;;;13.02;6.45;;;;;;;6.27;60.43;102079.00;5073644;28;20038;-67
2021/04/14 05:40:28;;;;;;;7.55;6.05;;;;;;;7.43;55.92;102077.91;5055565;28;20441;-66
2021/04/14 05:42:53;;;;;;;9.82;5.82;;;;;;;7.36;55.00;102074.25;5072187;28;20104;-67
2021/04/14 05:45:22;;;;;;;10.95;7.60;;;;;;;6.09;59.38;102081.91;5073467;28;20472;-67
2021/04/14 05:47:48;;;;;;;12.57;6.47;;;;;;;7.02;58.76;102092.59;5073603;28;20041;-67
2021/04/14 05:50:16;;;;;;;15.45;7.13;;;;;;;7.72;55.46;102085.69;5073346;28;20024;-67
2021/04/14 05:52:42;;;;;;;11.80;6.80;;;;;;;7.83;55.81;102093.81;5072768;28;20021;-67
2021/04/14 05:55:07;;;;;;;10.88;6.38;;;;;;;7.82;56.94;102092.06;5072870;28;20040;-67
2021/04/14 05:57:33;;;;;;;14.57;7.75;;;;;;;7.55;56.49;102088.75;5073376;28;20225;-67
2021/04/14 05:59:58;;;;;;;8.35;6.35;;;;;;;6.77;58.19;102089.22;5072803;28;20036;-67
2021/04/14 06:02:23;;;;;;;8.00;5.38;;;;;;;6.82;59.04;102098.97;5072967;28;20016;-67
2021/04/14 06:04:51;;;;;;;7.07;5.68;;;;;;;10.61;50.88;102089.53;5071546;28;20032;-66
2021/04/14 06:07:17;;;;;;;9.02;5.60;;;;;;;13.34;43.09;102088.16;5072788;28;20081;-67
2021/04/14 06:09:42;;;;;;;10.50;4.68;;;;;;;13.93;41.37;102093.50;5072279;28;20473;-67
2021/04/14 06:12:08;;;;;;;8.70;5.55;;;;;;;15.04;38.83;102089.72;5071943;28;20028;-67
2021/04/14 06:14:33;;;;;;;12.02;4.88;;;;;;;13.14;41.25;102091.59;5070850;28;20025;-67
2021/04/14 06:16:59;;;;;;;8.18;4.60;;;;;;;15.87;37.57;102082.06;5071187;28;20024;-67
2021/04/14 06:19:24;;;;;;;6.25;4.45;;;;;;;17.58;36.11;102089.78;5071812;28;20062;-67
2021/04/14 06:21:49;;;;;;;8.35;5.97;;;;;;;17.03;36.82;102087.88;5071527;28;20028;-68
2021/04/14 06:24:15;;;;;;;6.63;4.28;;;;;;;16.84;35.60;102091.69;5071146;28;20028;-68
2021/04/14 06:29:06;;;;;;;6.45;4.28;;;;;;;17.47;34.92;102087.28;5070154;28;20052;-67
2021/04/14 06:31:39;;;;;;;9.60;4.57;;;;;;;18.58;33.25;102099.59;5069535;28;20028;-68
2021/04/14 06:34:10;;;;;;;8.13;4.47;;;;;;;19.71;33.38;102089.97;5070186;28;20032;-68
2021/04/14 06:36:36;;;;;;;6.78;3.90;;;;;;;20.50;29.76;102094.19;5070005;28;20052;-68
2021/04/14 06:39:01;;;;;;;9.07;4.00;;;;;;;17.40;35.70;102090.94;5070049;28;20055;-68
2021/04/14 06:41:54;;;;;;;6.25;3.40;;;;;;;17.61;35.74;102089.72;5069942;28;20479;-67
2021/04/14 06:44:40;;;;;;;7.00;4.03;;;;;;;17.38;35.14;102093.66;5069650;28;20036;-68
2021/04/14 06:47:30;;;;;;;6.78;4.10;;;;;;;16.14;36.54;102094.22;5069854;28;20021;-67
2021/04/14 06:50:07;;;;;;;8.32;4.45;;;;;;;14.80;40.59;102092.47;5069177;28;20056;-68
2021/04/14 06:52:56;;;;;;;9.98;4.32;;;;;;;16.11;37.73;102096.91;5069523;28;20028;-67
2021/04/14 06:55:27;;;;;;;7.72;4.10;;;;;;;16.07;37.48;102084.53;5069861;28;20024;-68
2021/04/14 06:57:54;;;;;;;;;;;;;;;18.74;35.41;102088.59;5070559;28;20029;-67
2021/04/14 07:00:27;;;;;;;7.57;4.38;;;;;;;18.71;34.08;102091.34;5069496;28;19908;-67
2021/04/14 07:03:06;;;;;;;7.05;4.45;;;;;;;19.16;33.16;102098.44;5070158;28;20395;-67
2021/04/14 07:05:41;;;;;;;9.90;4.78;;;;;;;18.96;31.75;102088.13;5074621;28;20097;-68
2021/04/14 07:08:09;;;;;;;7.57;3.95;;;;;;;17.04;35.55;102100.31;5073545;28;20028;-67
2021/04/14 07:10:36;;;;;;;6.47;4.47;;;;;;;15.04;38.57;102100.34;5073062;28;20036;-67
2021/04/14 07:13:12;;;;;;;8.70;3.58;;;;;;;13.80;41.54;102092.63;5073379;28;20031;-68
2021/04/14 07:15:37;;;;;;;6.03;3.67;;;;;;;19.53;32.08;102082.41;5074437;28;20376;-67
2021/04/14 07:18:13;;;;;;;7.85;4.35;;;;;;;18.39;33.50;102100.88;5073185;28;20036;-68
2021/04/14 07:21:17;;;;;;;10.00;4.40;;;;;;;19.20;31.67;102085.84;5056267;28;20103;-68
2021/04/14 07:23:47;;;;;;;7.10;3.88;;;;;;;21.86;29.04;102092.75;5056841;28;20032;-67
2021/04/14 07:26:20;;;;;;;8.65;4.07;;;;;;;18.65;32.06;102094.13;5073187;28;20369;-68
2021/04/14 07:29:05;;;;;;;8.75;4.45;;;;;;;16.76;36.39;102090.00;5072873;28;20032;-68
2021/04/14 07:32:09;;;;;;;5.25;3.63;;;;;;;18.46;34.93;102103.41;5072358;28;20541;-68
2021/04/14 07:34:44;;;;;;;7.30;4.25;;;;;;;18.49;32.97;102097.13;5089779;28;20024;-67
2021/04/14 07:37:17;;;;;;;9.77;4.05;;;;;;;16.99;35.54;102088.84;5074076;28;20506;-67
2021/04/14 07:40:17;;;;;;;5.60;3.80;;;;;;;15.14;39.82;102080.81;5072749;28;20033;-68
2021/04/14 07:43:11;;;;;;;14.77;4.05;;;;;;;15.13;38.56;102068.38;5072654;28;20388;-68
2021/04/14 07:45:38;;;;;;;6.55;4.35;;;;;;;14.32;39.68;102084.63;5074373;28;20048;-67
2021/04/14 07:48:22;;;;;;;7.57;4.25;;;;;;;14.16;40.72;102086.41;5072691;28;20028;-67
2021/04/14 07:50:56;;;;;;;10.13;5.28;;;;;;;12.49;45.39;102079.00;5072967;28;20472;-67
2021/04/14 07:53:29;;;;;;;8.60;5.07;;;;;;;12.13;45.13;102085.81;5073248;28;20028;-67
2021/04/14 07:56:03;;;;;;;8.55;4.80;;;;;;;12.50;45.12;102088.69;5073278;28;20027;-67
2021/04/14 07:58:29;;;;;;;7.05;4.30;;;;;;;12.32;44.99;102082.44;5074427;28;20027;-67
2021/04/14 08:00:54;;;;;;;7.60;4.60;;;;;;;11.76;45.20;102083.72;5056582;28;20391;-67
2021/04/14 08:03:29;;;;;;;9.80;4.93;;;;;;;11.38;46.60;102082.50;5072909;28;20354;-68
2021/04/14 08:06:12;;;;;;;8.35;4.65;;;;;;;10.94;46.84;102086.44;5053134;28;20047;-67
2021/04/14 08:08:40;;;;;;;11.40;5.40;;;;;;;10.86;47.55;102079.31;5072633;28;20025;-67
2021/04/14 08:11:11;;;;;;;12.38;4.95;;;;;;;11.47;46.78;102071.16;5072795;28;20027;-67
2021/04/14 08:13:40;;;;;;;12.15;6.35;;;;;;;12.26;46.07;102084.13;5073789;28;20051;-67
2021/04/14 08:16:30;;;;;;;9.45;4.70;;;;;;;12.41;44.09;102072.78;5056220;28;20023;-67
2021/04/14 08:19:00;;;;;;;7.63;3.75;;;;;;;17.75;34.71;102065.50;5072934;28;20056;-67
2021/04/14 08:21:37;;;;;;;5.80;4.65;;;;;;;18.81;33.66;102062.63;5055369;28;20037;-67
2021/04/14 08:24:06;;;;;;;11.48;3.05;;;;;;;17.51;34.70;102058.78;5071617;28;20041;-67
2021/04/14 08:26:32;;;;;;;7.50;3.45;;;;;;;15.03;37.41;102054.28;5071891;28;20028;-69
2021/04/14 08:29:12;;;;;;;5.88;3.20;;;;;;;13.12;40.07;102066.00;5071851;28;20035;-67
2021/04/14 08:31:45;;;;;;;10.13;3.58;;;;;;;12.27;42.20;102080.63;5072108;28;20033;-66
2021/04/14 08:34:21;;;;;;;10.80;5.35;;;;;;;10.99;47.97;102082.97;5072570;28;20027;-67
2021/04/14 08:36:56;;;;;;;9.93;5.43;;;;;;;11.28;49.16;102082.41;5071941;28;20121;-67
2021/04/14 08:39:29;;;;;;;8.77;4.43;;;;;;;10.43;50.60;102078.72;5072383;28;20020;-67
2021/04/14 08:42:19;;;;;;;4.85;3.15;;;;;;;10.88;51.53;102077.56;5071946;28;20509;-67
2021/04/14 08:44:47;;;;;;;8.23;3.85;;;;;;;10.69;51.00;102080.81;5073320;28;20027;-67
2021/04/14 08:47:22;;;;;;;9.00;4.05;;;;;;;10.26;52.14;102079.34;5072288;28;20024;-67
2021/04/14 08:49:49;;;;;;;15.82;4.82;;;;;;;11.06;50.70;102065.44;5073397;28;20028;-68
2021/04/14 08:52:20;;;;;;;5.90;3.72;;;;;;;10.46;52.37;102070.84;5072085;28;20032;-68
2021/04/14 08:54:46;;;;;;;8.27;4.07;;;;;;;9.89;53.31;102066.47;5072173;28;20071;-67
2021/04/14 08:57:15;;;;;;;9.45;4.10;;;;;;;11.79;49.00;102065.25;5072061;28;20107;-68
2021/04/14 08:59:41;;;;;;;7.97;3.65;;;;;;;11.31;50.52;102060.44;5072003;28;20154;-68
2021/04/14 09:02:08;;;;;;;10.68;4.47;;;;;;;10.40;52.35;102072.50;5054835;28;20107;-67
2021/04/14 09:04:34;;;;;;;7.78;4.75;;;;;;;10.74;50.39;102068.59;5072030;28;20028;-67
2021/04/14 09:07:00;;;;;;;9.23;3.70;;;;;;;10.94;49.31;102057.41;5071761;28;20031;-68
2021/04/14 09:09:29;;;;;;;4.55;3.40;;;;;;;11.40;47.45;102054.34;5071401;28;20104;-68
2021/04/14 09:12:03;;;;;;;10.52;3.95;;;;;;;12.85;44.44;102054.44;5072188;28;20043;-68
2021/04/14 09:14:30;;;;;;;8.93;3.92;;;;;;;17.43;38.48;102042.91;5072045;28;20031;-67
2021/04/14 09:16:59;;;;;;;5.32;3.55;;;;;;;17.20;36.66;102041.47;5072588;28;20093;-67
2021/04/14 09:19:32;;;;;;;8.60;3.28;;;;;;;17.18;35.41;102048.63;5071034;28;20072;-68
2021/04/14 09:22:00;;;;;;;7.72;3.10;;;;;;;14.78;37.75;102056.19;5072133;28;20036;-68
2021/04/14 09:24:41;;;;;;;6.95;2.97;;;;;;;12.91;43.12;102052.69;5072392;28;20024;-67
2021/04/14 09:27:18;;;;;;;9.32;3.30;;;;;;;12.87;41.48;102053.56;5086105;28;20047;-68
2021/04/14 09:29:46;;;;;;;3.80;3.35;;;;;;;12.57;43.41;102053.44;5071142;28;20024;-67
2021/04/14 09:32:13;;;;;;;7.65;3.35;;;;;;;12.58;42.89;102041.09;5071200;28;20024;-67
2021/04/14 09:34:42;;;;;;;6.65;3.20;;;;;;;12.61;44.53;102038.47;5071651;28;20034;-67
2021/04/14 09:37:13;;;;;;;8.30;3.60;;;;;;;12.71;42.96;102044.69;5088144;28;20107;-67
2021/04/14 09:39:44;;;;;;;5.38;2.67;;;;;;;11.77;43.86;102037.94;5072699;28;20047;-67
2021/04/14 09:42:22;;;;;;;;;;;;;;;12.88;44.41;102030.63;5072963;28;20029;-68
2021/04/14 09:44:48;;;;;;;6.05;2.65;;;;;;;17.48;36.90;102034.84;5072486;28;19966;-68
2021/04/14 09:47:15;;;;;;;5.68;3.30;;;;;;;16.47;37.29;102034.44;5070574;28;20491;-68
2021/04/14 09:49:44;;;;;;;4.68;2.60;;;;;;;15.17;34.38;102038.25;5070747;28;20066;-67
2021/04/14 09:52:23;;;;;;;5.32;2.70;;;;;;;13.80;40.18;102046.66;5070983;28;20116;-67
2021/04/14 09:54:51;;;;;;;4.22;2.28;;;;;;;13.47;40.02;102038.66;5072779;28;20016;-67
2021/04/14 09:57:20;;;;;;;5.35;3.45;;;;;;;12.57;40.68;102036.66;5071277;28;20108;-67
2021/04/14 09:59:45;;;;;;;3.40;2.97;;;;;;;11.97;43.09;102031.91;5054502;28;20024;-67
2021/04/14 10:02:13;;;;;;;4.13;3.28;;;;;;;12.15;43.60;102026.78;5072501;28;20027;-67
2021/04/14 10:04:39;;;;;;;5.13;3.17;;;;;;;11.62;45.18;102034.31;5071209;28;20472;-67
2021/04/14 10:07:17;;;;;;;5.38;3.17;;;;;;;12.04;42.15;102020.50;5071230;28;20029;-67
2021/04/14 10:09:43;;;;;;;4.82;3.80;;;;;;;12.27;43.85;102020.66;5071385;28;20111;-67
2021/04/14 10:12:17;;;;;;;4.40;2.90;;;;;;;12.52;44.72;102018.16;5071922;28;20108;-67
2021/04/14 10:14:47;;;;;;;4.10;2.60;;;;;;;13.31;42.79;102022.75;5071230;28;20111;-67
2021/04/14 10:17:13;;;;;;;6.32;2.60;;;;;;;13.27;41.25;102015.69;5054563;28;20037;-67
2021/04/14 10:19:38;;;;;;;8.05;3.08;;;;;;;13.59;41.28;102011.31;5072385;28;20063;-67
2021/04/14 10:22:12;;;;;;;5.55;3.10;;;;;;;14.34;37.41;102000.59;5054148;28;20032;-67
2021/04/14 10:24:38;;;;;;;4.70;3.42;;;;;;;15.98;36.41;102003.06;5070844;28;20024;-68
2021/04/14 10:27:04;;;;;;;6.38;3.10;;;;;;;17.85;33.79;101994.19;5070105;28;20033;-68
2021/04/14 10:29:34;;;;;;;5.35;2.50;;;;;;;20.48;31.82;102002.28;5071135;28;20480;-67
2021/04/14 10:32:00;;;;;;;4.30;3.40;;;;;;;21.30;29.98;101988.09;5069910;28;20078;-68
2021/04/14 10:34:32;;;;;;;6.03;2.97;;;;;;;21.74;28.30;101990.22;5053354;28;20029;-68
2021/04/14 10:36:58;;;;;;;8.43;3.05;;;;;;;20.90;29.72;101992.97;5070419;28;20028;-68
2021/04/14 10:39:42;;;;;;;4.15;2.20;;;;;;;16.97;34.23;101993.81;5073719;28;20099;-68
2021/04/14 10:42:14;;;;;;;4.35;2.42;;;;;;;16.07;34.61;101993.19;5072944;28;20025;-67
2021/04/14 10:44:39;;;;;;;6.05;3.08;;;;;;;15.67;35.63;101984.69;5073606;28;20076;-69
2021/04/14 10:47:19;;;;;;;5.15;3.22;;;;;;;13.94;39.68;102001.56;5073818;28;20033;-68
2021/04/14 10:49:44;;;;;;;7.40;2.80;;;;;;;14.41;38.89;101998.78;5074207;28;20029;-68
2021/04/14 10:52:16;;;;;;;3.22;2.50;;;;;;;14.01;40.77;102005.09;5075396;28;20028;-67
2021/04/14 10:54:45;;;;;;;4.75;2.40;;;;;;;15.84;38.13;101997.81;5074535;28;20028;-67
2021/04/14 10:57:14;;;;;;;2.97;1.98;;;;;;;14.18;41.17;102005.94;5074148;28;20078;-68
2021/04/14 10:59:39;;;;;;;2.80;1.90;;;;;;;12.85;41.52;101998.84;5073655;28;20056;-67
2021/04/14 11:02:10;;;;;;;4.05;1.58;;;;;;;12.79;42.13;101990.00;5073559;28;20494;-66
2021/04/14 11:04:40;;;;;;;2.40;1.92;;;;;;;11.50;43.95;101992.78;5074618;28;20027;-67
2021/04/14 11:07:09;;;;;;;3.35;1.85;;;;;;;12.31;43.80;101988.06;5073656;28;20028;-66
2021/04/14 11:09:39;;;;;;;2.40;1.98;;;;;;;12.63;41.25;101989.06;5073213;28;20116;-67
2021/04/14 11:12:10;;;;;;;1.98;1.65;;;;;;;11.49;44.07;101988.41;5073021;28;20103;-67
2021/04/14 11:14:38;;;;;;;4.53;1.70;;;;;;;11.92;44.45;101992.22;5072957;28;20426;-66
2021/04/14 11:17:04;;;;;;;3.20;1.50;;;;;;;13.47;38.98;101978.59;5074344;28;20283;-66
2021/04/14 11:19:29;;;;;;;1.63;1.52;;;;;;;13.93;39.45;101987.41;5074184;28;20028;-66
2021/04/14 11:22:09;;;;;;;3.95;2.13;;;;;;;15.64;38.28;101979.41;5072947;28;20437;-67
2021/04/14 11:24:45;;;;;;;3.47;2.10;;;;;;;16.01;36.29;101980.84;5074342;28;20020;-67
2021/04/14 11:27:25;;;;;;;4.15;1.90;;;;;;;14.24;37.40;101989.97;5073041;28;20099;-67
2021/04/14 11:29:51;;;;;;;2.30;1.85;;;;;;;14.73;37.04;101974.72;5072857;28;20020;-67
2021/04/14 11:32:21;;;;;;;2.65;1.88;;;;;;;14.76;37.21;101979.13;5073495;28;20091;-67
2021/04/14 11:35:01;;;;;;;3.78;1.80;;;;;;;14.26;37.90;101974.06;5072765;28;20498;-67
2021/04/14 11:37:29;;;;;;;2.20;1.73;;;;;;;14.68;37.93;101968.56;5072973;28;20037;-67
2021/04/14 11:40:05;;;;;;;2.13;1.67;;;;;;;16.68;34.11;101964.03;5073735;28;20034;-67